Coronado, California
Current Conditions -  °F | °C
As of 7:52 PM on Sunday 21 Dec 2014 (Local Time) from KNZY Reporting Station
Broken Clouds Broken Clouds  
Wind Chill: 59°   Ceiling: 22000
Heat Index: 59°   Visibility: 10mi
Dew Point: 55°   Wind: 3mph
Humidity: 87%   Direction: 360°N
Pressure: 30.06"   Gusts: NA
Location:  32.68°N, 117.17°W
Report Text: KNZY 220352Z 36003KT 10SM BKN220 15/13 A3006 RMK AO2 SLP178 T01500128 $
Loading
Personal Weather Stations






























Interactive Weather Map New forecast layout! Learn more

10-Day Weather Forecast

Advertisements
Track Severe Weather on mobile